createdAt,value
2019-04-06T00:00:00.673Z,7.6
2019-04-06T00:05:00.456Z,7.5
2019-04-06T00:15:05.766Z,7.5
2019-04-06T00:20:00.465Z,7.4
2019-04-06T00:25:00.492Z,7.3
2019-04-06T00:30:00.666Z,7.3
2019-04-06T00:35:01.050Z,7.2
2019-04-06T00:40:00.464Z,7.1
2019-04-06T00:45:01.893Z,7.0
2019-04-06T00:50:00.479Z,6.9
2019-04-06T00:55:00.568Z,6.8
2019-04-06T01:00:00.660Z,6.8
2019-04-06T01:05:00.475Z,6.7
2019-04-06T01:10:00.484Z,6.6
2019-04-06T01:15:00.773Z,6.6
2019-04-06T01:20:00.434Z,6.5
2019-04-06T01:30:00.747Z,6.4
2019-04-06T01:40:00.636Z,6.5
2019-04-06T01:45:00.781Z,6.5
2019-04-06T01:50:00.607Z,6.6
2019-04-06T01:55:00.538Z,6.7
2019-04-06T02:00:00.709Z,6.8
2019-04-06T02:05:00.734Z,6.9
2019-04-06T02:10:00.535Z,7.0
2019-04-06T02:15:05.989Z,7.1
2019-04-06T02:30:00.753Z,7.2
2019-04-06T02:45:00.805Z,7.2
2019-04-06T03:00:00.798Z,7.3
2019-04-06T03:15:00.984Z,7.3
2019-04-06T03:30:00.737Z,7.2
2019-04-06T03:45:01.336Z,7.1
2019-04-06T03:55:00.642Z,7.0
2019-04-06T04:00:00.703Z,6.9
2019-04-06T04:10:01.162Z,6.8
2019-04-06T04:15:00.638Z,6.7
2019-04-06T04:20:00.954Z,6.6
2019-04-06T04:25:00.696Z,6.5
2019-04-06T04:30:00.704Z,6.3
2019-04-06T04:35:01.037Z,6.2
2019-04-06T04:40:00.693Z,6.1
2019-04-06T04:45:00.681Z,6.0
2019-04-06T04:55:00.667Z,5.9
2019-04-06T05:00:00.748Z,5.8
2019-04-06T05:10:00.680Z,5.7
2019-04-06T05:15:05.646Z,5.7
2019-04-06T05:25:02.696Z,5.8
2019-04-06T05:30:00.948Z,5.9
2019-04-06T05:35:00.760Z,6.1
2019-04-06T05:40:00.671Z,6.3
2019-04-06T05:45:00.713Z,6.5
2019-04-06T05:50:00.861Z,6.7
2019-04-06T05:55:00.655Z,6.8
2019-04-06T06:00:01.565Z,6.9
2019-04-06T06:05:01.631Z,7.0
2019-04-06T06:10:00.979Z,7.1
2019-04-06T06:15:00.922Z,7.1
2019-04-06T06:20:00.670Z,7.2
2019-04-06T06:25:00.772Z,7.3
2019-04-06T06:30:01.035Z,7.4
2019-04-06T06:35:00.929Z,7.5
2019-04-06T06:40:00.532Z,7.6
2019-04-06T06:45:00.732Z,7.7
2019-04-06T06:50:00.539Z,7.9
2019-04-06T06:55:00.738Z,8.1
2019-04-06T07:00:00.824Z,8.3
2019-04-06T07:05:00.794Z,8.4
2019-04-06T07:10:05.637Z,8.6
2019-04-06T07:15:00.746Z,8.7
2019-04-06T07:20:00.841Z,8.9
2019-04-06T07:25:00.582Z,9.0
2019-04-06T07:30:00.903Z,9.2
2019-04-06T07:35:00.622Z,9.4
2019-04-06T07:40:00.618Z,9.6
2019-04-06T07:45:00.760Z,9.8
2019-04-06T07:50:00.553Z,10.1
2019-04-06T07:55:01.108Z,10.4
2019-04-06T08:00:00.799Z,10.6
2019-04-06T08:05:00.716Z,10.7
2019-04-06T08:10:00.627Z,10.9
2019-04-06T08:15:01.224Z,11.0
2019-04-06T08:20:00.579Z,11.2
2019-04-06T08:25:00.659Z,11.3
2019-04-06T08:30:02.403Z,11.5
2019-04-06T08:35:00.665Z,11.6
2019-04-06T08:40:00.570Z,11.8
2019-04-06T08:45:01.106Z,11.9
2019-04-06T08:50:00.600Z,12.0
2019-04-06T08:55:00.712Z,12.1
2019-04-06T09:00:00.816Z,12.2
2019-04-06T09:05:00.882Z,12.3
2019-04-06T09:10:01.175Z,12.4
2019-04-06T09:15:00.981Z,12.5
2019-04-06T09:20:00.595Z,12.6
2019-04-06T09:25:05.743Z,12.7
2019-04-06T09:30:05.929Z,12.8
2019-04-06T09:40:00.717Z,12.9
2019-04-06T09:45:00.817Z,13.0
2019-04-06T09:50:00.602Z,13.1
2019-04-06T09:55:00.755Z,13.2
2019-04-06T10:00:01.013Z,13.4
2019-04-06T10:05:00.907Z,13.6
2019-04-06T10:10:00.678Z,13.8
2019-04-06T10:15:00.854Z,14.0
2019-04-06T10:20:00.846Z,14.3
2019-04-06T10:25:00.771Z,14.4
2019-04-06T10:30:00.915Z,14.6
2019-04-06T10:35:00.745Z,14.7
2019-04-06T10:40:00.695Z,14.9
2019-04-06T10:45:01.125Z,15.0
2019-04-06T10:50:00.644Z,15.1
2019-04-06T10:55:00.771Z,15.2
2019-04-06T11:00:03.612Z,15.3
2019-04-06T11:05:00.690Z,15.4
2019-04-06T11:15:01.078Z,15.4
2019-04-06T11:30:14.794Z,15.4
2019-04-06T11:35:01.321Z,15.5
2019-04-06T11:45:01.313Z,15.5
2019-04-06T11:50:00.661Z,15.7
2019-04-06T11:55:02.591Z,15.8
2019-04-06T12:00:00.906Z,15.9
2019-04-06T12:05:00.810Z,16.1
2019-04-06T12:10:00.637Z,16.2
2019-04-06T12:15:00.912Z,16.3
2019-04-06T12:25:00.759Z,16.4
2019-04-06T12:30:01.066Z,16.5
2019-04-06T12:40:00.854Z,16.6
2019-04-06T12:45:00.914Z,16.6
2019-04-06T12:50:00.701Z,16.7
2019-04-06T13:00:00.925Z,16.8
2019-04-06T13:10:00.878Z,16.9
2019-04-06T13:15:01.590Z,17.0
2019-04-06T13:20:00.641Z,17.1
2019-04-06T13:25:00.748Z,17.2
2019-04-06T13:30:05.818Z,17.3
2019-04-06T13:40:01.123Z,17.4
2019-04-06T13:45:03.961Z,17.4
2019-04-06T13:50:00.674Z,17.5
2019-04-06T13:55:00.818Z,17.6
2019-04-06T14:00:00.874Z,17.6
2019-04-06T14:05:00.808Z,17.5
2019-04-06T14:10:00.963Z,17.6
2019-04-06T14:15:01.180Z,17.5
2019-04-06T14:30:01.194Z,17.6
2019-04-06T14:40:01.118Z,17.5
2019-04-06T14:45:01.505Z,17.4
2019-04-06T14:50:02.377Z,17.3
2019-04-06T14:55:00.764Z,17.1
2019-04-06T15:00:01.427Z,17.0
2019-04-06T15:10:01.233Z,16.9
2019-04-06T15:15:00.905Z,16.9
2019-04-06T15:25:01.077Z,16.8
2019-04-06T15:30:00.862Z,16.7
2019-04-06T15:45:01.109Z,16.6
2019-04-06T16:00:01.135Z,16.5
2019-04-06T16:15:01.217Z,16.5
2019-04-06T16:20:00.699Z,16.4
2019-04-06T16:25:00.689Z,16.3
2019-04-06T16:30:01.016Z,16.3
2019-04-06T16:35:01.396Z,16.2
2019-04-06T16:40:00.705Z,16.1
2019-04-06T16:45:00.699Z,16.1
2019-04-06T16:55:01.000Z,16.0
2019-04-06T17:00:00.710Z,16.0
2019-04-06T17:05:00.696Z,15.9
2019-04-06T17:10:00.712Z,15.8
2019-04-06T17:15:04.166Z,15.7
2019-04-06T17:20:01.034Z,15.5
2019-04-06T17:25:00.767Z,15.4
2019-04-06T17:30:01.320Z,15.1
2019-04-06T17:35:00.701Z,14.8
2019-04-06T17:40:00.729Z,14.4
2019-04-06T17:45:01.305Z,14.0
2019-04-06T17:50:00.944Z,13.5
2019-04-06T17:55:00.703Z,13.2
2019-04-06T18:00:00.858Z,12.7
2019-04-06T18:05:01.110Z,12.5
2019-04-06T18:10:01.092Z,12.3
2019-04-06T18:15:01.107Z,12.1
2019-04-06T18:20:00.914Z,11.8
2019-04-06T18:25:01.200Z,11.6
2019-04-06T18:30:01.063Z,11.3
2019-04-06T18:35:00.734Z,11.1
2019-04-06T18:40:00.744Z,10.9
2019-04-06T18:45:01.204Z,10.8
2019-04-06T18:50:00.741Z,10.7
2019-04-06T18:55:01.202Z,10.6
2019-04-06T19:00:01.106Z,10.5
2019-04-06T19:05:00.783Z,10.4
2019-04-06T19:10:00.834Z,10.2
2019-04-06T19:15:01.389Z,10.1
2019-04-06T19:20:00.647Z,10.0
2019-04-06T19:25:05.982Z,9.9
2019-04-06T19:30:00.850Z,9.8
2019-04-06T19:40:02.470Z,9.7
2019-04-06T19:45:01.302Z,9.7
2019-04-06T19:50:00.827Z,9.6
2019-04-06T20:00:01.130Z,9.5
2019-04-06T20:10:00.903Z,9.4
2019-04-06T20:15:00.958Z,9.3
2019-04-06T20:20:00.817Z,9.2
2019-04-06T20:25:01.594Z,9.1
2019-04-06T20:30:02.570Z,9.0
2019-04-06T20:45:00.944Z,8.9
2019-04-06T20:50:00.803Z,8.8
2019-04-06T21:00:00.874Z,8.7
2019-04-06T21:10:05.984Z,8.6
2019-04-06T21:15:01.085Z,8.6
2019-04-06T21:20:01.550Z,8.5
2019-04-06T21:25:01.002Z,8.4
2019-04-06T21:30:00.820Z,8.4
2019-04-06T21:35:01.663Z,8.3
2019-04-06T21:40:01.043Z,8.2
2019-04-06T21:45:00.903Z,8.1
2019-04-06T22:00:00.971Z,8.0
2019-04-06T22:15:00.919Z,8.0
2019-04-06T22:25:01.033Z,7.9
2019-04-06T22:30:01.445Z,7.9
2019-04-06T22:35:00.994Z,7.8
2019-04-06T22:45:01.385Z,7.7
2019-04-06T23:00:01.088Z,7.6
2019-04-06T23:05:00.930Z,7.5
2019-04-06T23:15:01.616Z,7.4
2019-04-06T23:30:01.144Z,7.3
2019-04-06T23:45:00.941Z,7.3
2019-04-06T23:50:00.909Z,7.2
